createdAt,value
2022-07-28T00:00:45.643Z,23.62
2022-07-28T00:01:45.737Z,23.59
2022-07-28T00:02:45.695Z,23.56
2022-07-28T00:03:45.629Z,23.56
2022-07-28T00:04:45.621Z,23.54
2022-07-28T00:05:45.647Z,23.53
2022-07-28T00:06:45.667Z,23.52
2022-07-28T00:07:45.676Z,23.49
2022-07-28T00:08:45.657Z,23.47
2022-07-28T00:09:45.650Z,23.44
2022-07-28T00:10:45.673Z,23.45
2022-07-28T00:11:50.265Z,23.44
2022-07-28T00:12:45.677Z,23.44
2022-07-28T00:13:45.667Z,23.39
2022-07-28T00:14:45.649Z,23.41
2022-07-28T00:15:45.680Z,23.42
2022-07-28T00:16:45.768Z,23.42
2022-07-28T00:17:45.779Z,23.41
2022-07-28T00:18:45.773Z,23.42
2022-07-28T00:19:45.750Z,23.44
2022-07-28T00:20:45.779Z,23.41
2022-07-28T00:21:45.788Z,23.41
2022-07-28T00:22:45.841Z,23.38
2022-07-28T00:23:45.826Z,23.41
2022-07-28T00:24:45.804Z,23.42
2022-07-28T00:25:45.869Z,23.41
2022-07-28T00:26:46.871Z,23.38
2022-07-28T00:27:45.832Z,23.37
2022-07-28T00:28:45.897Z,23.39
2022-07-28T00:29:50.539Z,23.41
2022-07-28T00:30:45.918Z,23.41
2022-07-28T00:31:45.983Z,23.39
2022-07-28T00:32:45.917Z,23.39
2022-07-28T00:33:45.964Z,23.38
2022-07-28T00:34:45.963Z,23.38
2022-07-28T00:35:48.485Z,23.41
2022-07-28T00:36:45.944Z,23.39
2022-07-28T00:37:45.958Z,23.38
2022-07-28T00:38:48.851Z,23.35
2022-07-28T00:39:45.997Z,23.34
2022-07-28T00:40:45.984Z,23.31
2022-07-28T00:41:46.000Z,23.31
2022-07-28T00:42:45.962Z,23.31
2022-07-28T00:43:45.998Z,23.32
2022-07-28T00:44:46.038Z,23.31
2022-07-28T00:45:46.032Z,23.29
2022-07-28T00:46:46.108Z,23.25
2022-07-28T00:47:46.025Z,23.29
2022-07-28T00:48:46.179Z,23.31
2022-07-28T00:49:46.103Z,23.26
2022-07-28T00:50:46.093Z,23.25
2022-07-28T00:51:46.123Z,23.22
2022-07-28T00:52:46.147Z,23.19
2022-07-28T00:53:46.144Z,23.21
2022-07-28T00:54:46.174Z,23.21
2022-07-28T00:56:03.574Z,23.22
2022-07-28T00:56:46.233Z,23.21
2022-07-28T00:57:46.244Z,23.23
2022-07-28T00:58:46.205Z,23.21
2022-07-28T00:59:46.240Z,23.23
2022-07-28T01:00:46.288Z,23.22
2022-07-28T01:01:46.460Z,23.22
2022-07-28T01:02:46.574Z,23.21
2022-07-28T01:03:46.338Z,23.19
2022-07-28T01:04:46.346Z,23.16
2022-07-28T01:05:46.314Z,23.16
2022-07-28T01:06:46.336Z,23.16
2022-07-28T01:07:46.375Z,23.15
2022-07-28T01:08:46.448Z,23.14
2022-07-28T01:09:46.430Z,23.14
2022-07-28T01:10:46.482Z,23.14
2022-07-28T01:11:46.459Z,23.15
2022-07-28T01:12:46.485Z,23.12
2022-07-28T01:13:46.512Z,23.12
2022-07-28T01:14:46.521Z,23.12
2022-07-28T01:15:46.535Z,23.11
2022-07-28T01:16:46.499Z,23.07
2022-07-28T01:17:46.567Z,23.09
2022-07-28T01:18:46.566Z,23.07
2022-07-28T01:19:46.773Z,23.06
2022-07-28T01:20:46.596Z,23.06
2022-07-28T01:21:46.641Z,23.09
2022-07-28T01:22:46.673Z,23.11
2022-07-28T01:23:46.651Z,23.12
2022-07-28T01:24:46.674Z,23.09
2022-07-28T01:25:48.708Z,23.11
2022-07-28T01:26:46.675Z,23.12
2022-07-28T01:27:46.676Z,23.11
2022-07-28T01:28:46.646Z,23.12
2022-07-28T01:29:46.674Z,23.11
2022-07-28T01:30:46.784Z,23.11
2022-07-28T01:31:46.761Z,23.12
2022-07-28T01:32:46.724Z,23.09
2022-07-28T01:33:46.707Z,23.09
2022-07-28T01:34:46.736Z,23.09
2022-07-28T01:35:46.763Z,23.11
2022-07-28T01:36:46.761Z,23.14
2022-07-28T01:37:46.819Z,23.15
2022-07-28T01:38:46.813Z,23.18
2022-07-28T01:39:46.788Z,23.16
2022-07-28T01:40:50.249Z,23.12
2022-07-28T01:41:46.818Z,23.07
2022-07-28T01:42:46.834Z,23.07
2022-07-28T01:43:46.826Z,23.04
2022-07-28T01:44:46.864Z,23.04
2022-07-28T01:45:46.847Z,23.00
2022-07-28T01:46:46.990Z,23.01
2022-07-28T01:47:46.896Z,23.00
2022-07-28T01:48:46.946Z,22.97
2022-07-28T01:49:46.885Z,22.91
2022-07-28T01:50:46.936Z,22.93
2022-07-28T01:51:46.932Z,22.94
2022-07-28T01:52:46.915Z,22.94
2022-07-28T01:53:46.914Z,22.96
2022-07-28T01:54:46.941Z,22.97
2022-07-28T01:55:46.985Z,22.94
2022-07-28T01:56:46.990Z,22.89
2022-07-28T01:57:47.051Z,22.85
2022-07-28T01:58:47.028Z,22.86
2022-07-28T01:59:47.064Z,22.85
2022-07-28T02:00:47.080Z,22.82
2022-07-28T02:01:47.227Z,22.76
2022-07-28T02:02:47.120Z,22.75
2022-07-28T02:03:47.111Z,22.75
2022-07-28T02:04:47.226Z,22.74
2022-07-28T02:05:47.138Z,22.74
2022-07-28T02:06:47.175Z,22.72
2022-07-28T02:07:47.188Z,22.69
2022-07-28T02:08:47.170Z,22.69
2022-07-28T02:09:47.217Z,22.66
2022-07-28T02:10:47.313Z,22.66
2022-07-28T02:11:47.205Z,22.67
2022-07-28T02:12:47.257Z,22.70
2022-07-28T02:13:47.226Z,22.69
2022-07-28T02:14:47.260Z,22.69
2022-07-28T02:15:47.341Z,22.60
2022-07-28T02:16:47.275Z,22.63
2022-07-28T02:17:47.340Z,22.59
2022-07-28T02:18:47.277Z,22.56
2022-07-28T02:19:47.279Z,22.57
2022-07-28T02:20:47.315Z,22.57
2022-07-28T02:21:47.379Z,22.56
2022-07-28T02:22:51.460Z,22.56
2022-07-28T02:23:47.384Z,22.52
2022-07-28T02:24:47.367Z,22.54
2022-07-28T02:25:47.402Z,22.51
2022-07-28T02:26:47.433Z,22.49
2022-07-28T02:27:47.470Z,22.51
2022-07-28T02:28:47.457Z,22.52
2022-07-28T02:29:51.041Z,22.46
2022-07-28T02:30:47.535Z,22.44
2022-07-28T02:31:47.486Z,22.39
2022-07-28T02:32:47.509Z,22.41
2022-07-28T02:33:58.852Z,22.45
2022-07-28T02:34:47.495Z,22.48
2022-07-28T02:35:49.031Z,22.45
2022-07-28T02:36:47.517Z,22.42
2022-07-28T02:37:47.550Z,22.45
2022-07-28T02:38:47.530Z,22.45
2022-07-28T02:39:58.711Z,22.42
2022-07-28T02:40:47.579Z,22.41
2022-07-28T02:41:47.617Z,22.39
2022-07-28T02:42:47.617Z,22.41
2022-07-28T02:43:50.347Z,22.39
2022-07-28T02:44:47.630Z,22.39
2022-07-28T02:45:47.686Z,22.39
2022-07-28T02:46:47.609Z,22.36
2022-07-28T02:47:47.667Z,22.41
2022-07-28T02:48:47.719Z,22.42
2022-07-28T02:49:47.657Z,22.41
2022-07-28T02:50:47.669Z,22.41
2022-07-28T02:51:47.647Z,22.38
2022-07-28T02:52:47.689Z,22.41
2022-07-28T02:53:47.687Z,22.39
2022-07-28T02:54:47.672Z,22.38
2022-07-28T02:55:47.683Z,22.39
2022-07-28T02:56:53.301Z,22.38
2022-07-28T02:57:47.677Z,22.39
2022-07-28T02:58:47.708Z,22.44
2022-07-28T02:59:47.689Z,22.44
2022-07-28T03:00:47.727Z,22.38
2022-07-28T03:01:47.831Z,22.33
2022-07-28T03:02:47.751Z,22.38
2022-07-28T03:03:47.751Z,22.38
2022-07-28T03:04:47.784Z,22.35
2022-07-28T03:05:47.740Z,22.36
2022-07-28T03:06:47.770Z,22.38
2022-07-28T03:07:50.766Z,22.36
2022-07-28T03:08:47.816Z,22.38
2022-07-28T03:09:47.792Z,22.36
2022-07-28T03:10:47.833Z,22.33
2022-07-28T03:11:47.873Z,22.30
2022-07-28T03:12:47.893Z,22.31
2022-07-28T03:13:47.850Z,22.30
2022-07-28T03:14:47.884Z,22.30
2022-07-28T03:15:47.936Z,22.29
2022-07-28T03:16:51.110Z,22.26
2022-07-28T03:17:47.962Z,22.29
2022-07-28T03:18:47.929Z,22.26
2022-07-28T03:19:47.968Z,22.24
2022-07-28T03:20:47.997Z,22.24
2022-07-28T03:21:48.044Z,22.24
2022-07-28T03:22:48.012Z,22.23
2022-07-28T03:23:48.038Z,22.26
2022-07-28T03:24:48.076Z,22.21
2022-07-28T03:25:48.108Z,22.24
2022-07-28T03:26:48.148Z,22.29
2022-07-28T03:27:48.150Z,22.29
2022-07-28T03:28:48.132Z,22.30
2022-07-28T03:29:48.161Z,22.33
2022-07-28T03:30:48.265Z,22.31
2022-07-28T03:31:48.164Z,22.27
2022-07-28T03:32:48.237Z,22.24
2022-07-28T03:33:48.210Z,22.23
2022-07-28T03:34:48.214Z,22.26
2022-07-28T03:35:48.269Z,22.26
2022-07-28T03:36:48.284Z,22.26
2022-07-28T03:37:48.277Z,22.23
2022-07-28T03:38:48.327Z,22.19
2022-07-28T03:39:48.359Z,22.20
2022-07-28T03:40:48.315Z,22.20
2022-07-28T03:41:48.370Z,22.17
2022-07-28T03:42:48.364Z,22.17
2022-07-28T03:43:48.396Z,22.15
2022-07-28T03:44:48.414Z,22.19
2022-07-28T03:45:48.425Z,22.15
2022-07-28T03:46:48.394Z,22.14
2022-07-28T03:47:48.396Z,22.15
2022-07-28T03:48:48.535Z,22.14
2022-07-28T03:49:48.453Z,22.14
2022-07-28T03:50:48.436Z,22.12
2022-07-28T03:51:48.431Z,22.12
2022-07-28T03:52:48.469Z,22.12
2022-07-28T03:53:48.517Z,22.15
2022-07-28T03:54:48.644Z,22.12
2022-07-28T03:55:48.515Z,22.12
2022-07-28T03:56:48.549Z,22.11
2022-07-28T03:57:48.605Z,22.09
2022-07-28T03:58:48.602Z,22.12
2022-07-28T03:59:48.592Z,22.12
2022-07-28T04:00:48.739Z,22.12
2022-07-28T04:01:48.630Z,22.14
2022-07-28T04:02:48.734Z,22.14
2022-07-28T04:03:48.661Z,22.15
2022-07-28T04:04:48.680Z,22.15
2022-07-28T04:05:48.695Z,22.19
2022-07-28T04:06:48.745Z,22.21
2022-07-28T04:07:48.771Z,22.24
2022-07-28T04:08:48.769Z,22.23
2022-07-28T04:09:48.789Z,22.29
2022-07-28T04:10:48.801Z,22.30
2022-07-28T04:11:48.841Z,22.31
2022-07-28T04:12:48.819Z,22.33
2022-07-28T04:13:48.825Z,22.35
2022-07-28T04:14:48.862Z,22.33
2022-07-28T04:15:48.875Z,22.29
2022-07-28T04:16:49.017Z,22.27
2022-07-28T04:17:48.968Z,22.30
2022-07-28T04:18:48.973Z,22.31
2022-07-28T04:19:48.941Z,22.27
2022-07-28T04:20:48.977Z,22.23
2022-07-28T04:21:48.998Z,22.24
2022-07-28T04:22:48.986Z,22.29
2022-07-28T04:23:49.026Z,22.31
2022-07-28T04:24:49.063Z,22.30
2022-07-28T04:25:49.015Z,22.35
2022-07-28T04:26:49.068Z,22.38
2022-07-28T04:27:49.080Z,22.31
2022-07-28T04:28:49.091Z,22.30
2022-07-28T04:29:49.065Z,22.26
2022-07-28T04:30:49.119Z,22.24
2022-07-28T04:31:49.079Z,22.26
2022-07-28T04:32:49.107Z,22.27
2022-07-28T04:33:49.089Z,22.29
2022-07-28T04:34:49.128Z,22.31
2022-07-28T04:35:49.143Z,22.33
2022-07-28T04:36:49.163Z,22.31
2022-07-28T04:37:49.201Z,22.30
2022-07-28T04:38:49.187Z,22.29
2022-07-28T04:39:49.174Z,22.31
2022-07-28T04:40:49.158Z,22.33
2022-07-28T04:41:49.217Z,22.33
2022-07-28T04:42:49.222Z,22.33
2022-07-28T04:43:49.180Z,22.31
2022-07-28T04:44:49.228Z,22.30
2022-07-28T04:45:53.715Z,22.29
2022-07-28T04:46:49.270Z,22.33
2022-07-28T04:47:49.238Z,22.35
2022-07-28T04:48:49.348Z,22.33
2022-07-28T04:49:49.341Z,22.36
2022-07-28T04:50:49.356Z,22.38
2022-07-28T04:51:49.341Z,22.39
2022-07-28T04:52:49.381Z,22.49
2022-07-28T04:53:49.352Z,22.51
2022-07-28T04:54:49.344Z,22.48
2022-07-28T04:55:49.472Z,22.49
2022-07-28T04:56:49.396Z,22.45
2022-07-28T04:57:49.406Z,22.45
2022-07-28T04:58:49.508Z,22.44
2022-07-28T04:59:49.465Z,22.44
2022-07-28T05:02:15.370Z,22.41
2022-07-28T05:03:15.401Z,22.42
2022-07-28T05:04:15.869Z,22.45
2022-07-28T05:05:15.491Z,22.42
2022-07-28T05:06:15.425Z,22.44
2022-07-28T05:07:15.425Z,22.41
2022-07-28T05:08:15.468Z,22.41
2022-07-28T05:09:15.444Z,22.45
2022-07-28T05:10:15.482Z,22.45
2022-07-28T05:11:15.481Z,22.45
2022-07-28T05:12:15.482Z,22.51
2022-07-28T05:13:15.537Z,22.52
2022-07-28T05:14:15.673Z,22.56
2022-07-28T05:15:15.535Z,22.59
2022-07-28T05:16:15.601Z,22.63
2022-07-28T05:17:15.561Z,22.61
2022-07-28T05:18:15.569Z,22.64
2022-07-28T05:19:15.585Z,22.66
2022-07-28T05:20:15.611Z,22.69
2022-07-28T05:21:15.612Z,22.70
2022-07-28T05:22:15.631Z,22.67
2022-07-28T05:23:15.679Z,22.66
2022-07-28T05:24:15.973Z,22.67
2022-07-28T05:25:15.668Z,22.66
2022-07-28T05:26:15.701Z,22.67
2022-07-28T05:27:15.684Z,22.67
2022-07-28T05:28:15.705Z,22.70
2022-07-28T05:29:15.723Z,22.74
2022-07-28T05:30:15.740Z,22.75
2022-07-28T05:31:15.787Z,22.74
2022-07-28T05:32:17.369Z,22.74
2022-07-28T05:33:15.714Z,22.79
2022-07-28T05:34:16.073Z,22.81
2022-07-28T05:35:15.692Z,22.82
2022-07-28T05:36:15.902Z,22.84
2022-07-28T05:37:15.714Z,22.89
2022-07-28T05:38:15.732Z,22.88
2022-07-28T05:39:15.755Z,22.88
2022-07-28T05:40:15.782Z,22.89
2022-07-28T05:41:15.774Z,22.94
2022-07-28T05:42:15.908Z,22.97
2022-07-28T05:43:15.791Z,23.01
2022-07-28T05:44:16.092Z,23.07
2022-07-28T05:45:17.479Z,23.09
2022-07-28T05:46:15.933Z,23.09
2022-07-28T05:47:15.879Z,23.09
2022-07-28T05:48:15.891Z,23.11
2022-07-28T05:50:41.892Z,23.12
2022-07-28T05:51:42.056Z,23.14
2022-07-28T05:52:41.872Z,23.16
2022-07-28T05:53:41.874Z,23.16
2022-07-28T05:54:41.930Z,23.16
2022-07-28T05:56:00.760Z,23.15
2022-07-28T05:56:43.274Z,23.14
2022-07-28T05:57:41.945Z,23.14
2022-07-28T05:58:41.963Z,23.15
2022-07-28T05:59:41.945Z,23.19
2022-07-28T06:00:42.161Z,23.21
2022-07-28T06:01:42.096Z,23.21
2022-07-28T06:02:42.058Z,23.22
2022-07-28T06:03:42.691Z,23.23
2022-07-28T06:04:42.002Z,23.29
2022-07-28T06:06:00.848Z,23.31
2022-07-28T06:06:42.075Z,23.38
2022-07-28T06:07:42.717Z,23.37
2022-07-28T06:08:42.057Z,23.37
2022-07-28T06:09:45.135Z,23.44
2022-07-28T06:10:42.048Z,23.44
2022-07-28T06:11:42.074Z,23.45
2022-07-28T06:12:42.071Z,23.42
2022-07-28T06:13:42.101Z,23.39
2022-07-28T06:14:42.116Z,23.41
2022-07-28T06:15:42.109Z,23.37
2022-07-28T06:16:42.188Z,23.35
2022-07-28T06:17:42.112Z,23.35
2022-07-28T06:18:42.135Z,23.35
2022-07-28T06:19:42.120Z,23.38
2022-07-28T06:20:42.136Z,23.38
2022-07-28T06:21:42.181Z,23.39
2022-07-28T06:22:42.198Z,23.39
2022-07-28T06:23:42.223Z,23.41
2022-07-28T06:24:42.203Z,23.41
2022-07-28T06:25:42.241Z,23.44
2022-07-28T06:26:44.921Z,23.45
2022-07-28T06:27:42.251Z,23.44
2022-07-28T06:28:42.297Z,23.41
2022-07-28T06:29:42.281Z,23.39
2022-07-28T06:30:42.263Z,23.38
2022-07-28T06:31:42.332Z,23.38
2022-07-28T06:32:42.274Z,23.41
2022-07-28T06:33:42.294Z,23.42
2022-07-28T06:34:42.326Z,23.39
2022-07-28T06:35:47.815Z,23.38
2022-07-28T06:36:42.366Z,23.39
2022-07-28T06:37:42.439Z,23.45
2022-07-28T06:38:42.407Z,23.47
2022-07-28T06:39:42.377Z,23.52
2022-07-28T06:40:42.387Z,23.49
2022-07-28T06:41:42.405Z,23.49
2022-07-28T06:42:42.416Z,23.49
2022-07-28T06:43:42.454Z,23.45
2022-07-28T06:44:57.987Z,23.44
2022-07-28T06:45:42.476Z,23.37
2022-07-28T06:46:42.569Z,23.38
2022-07-28T06:47:47.214Z,23.37
2022-07-28T06:48:42.616Z,23.39
2022-07-28T06:49:42.557Z,23.42
2022-07-28T06:50:42.581Z,23.47
2022-07-28T06:51:42.614Z,23.47
2022-07-28T06:52:42.641Z,23.47
2022-07-28T06:53:42.643Z,23.47
2022-07-28T06:54:42.675Z,23.45
2022-07-28T06:55:42.692Z,23.44
2022-07-28T06:56:42.733Z,23.45
2022-07-28T06:57:42.737Z,23.50
2022-07-28T06:58:43.861Z,23.49
2022-07-28T06:59:42.784Z,23.54
2022-07-28T07:00:42.898Z,23.56
2022-07-28T07:01:42.827Z,23.53
2022-07-28T07:02:42.844Z,23.49
2022-07-28T07:03:42.904Z,23.45
2022-07-28T07:04:42.925Z,23.44
2022-07-28T07:05:42.891Z,23.37
2022-07-28T07:06:42.908Z,23.35
2022-07-28T07:07:43.746Z,23.34
2022-07-28T07:08:42.964Z,23.35
2022-07-28T07:09:42.995Z,23.37
2022-07-28T07:10:43.010Z,23.35
2022-07-28T07:11:43.025Z,23.37
2022-07-28T07:12:43.042Z,23.44
2022-07-28T07:13:43.071Z,23.47
2022-07-28T07:14:43.077Z,23.49
2022-07-28T07:15:43.109Z,23.53
2022-07-28T07:16:43.174Z,23.56
2022-07-28T07:17:43.211Z,23.60
2022-07-28T07:18:43.126Z,23.60
2022-07-28T07:19:43.114Z,23.63
2022-07-28T07:20:43.199Z,23.63
2022-07-28T07:21:43.170Z,23.59
2022-07-28T07:22:43.194Z,23.62
2022-07-28T07:23:43.207Z,23.63
2022-07-28T07:24:43.222Z,23.62
2022-07-28T07:25:43.266Z,23.67
2022-07-28T07:26:43.283Z,23.69
2022-07-28T07:27:43.261Z,23.71
2022-07-28T07:28:43.266Z,23.68
2022-07-28T07:29:43.334Z,23.64
2022-07-28T07:30:43.328Z,23.64
2022-07-28T07:31:43.363Z,23.68
2022-07-28T07:32:43.311Z,23.75
2022-07-28T07:33:43.298Z,23.78
2022-07-28T07:34:43.340Z,23.81
2022-07-28T07:35:43.407Z,23.82
2022-07-28T07:36:43.383Z,23.82
2022-07-28T07:37:43.587Z,23.86
2022-07-28T07:38:43.367Z,23.89
2022-07-28T07:39:43.415Z,23.89
2022-07-28T07:40:43.460Z,23.89
2022-07-28T07:41:43.446Z,23.86
2022-07-28T07:42:43.459Z,23.86
2022-07-28T07:43:47.592Z,23.90
2022-07-28T07:44:43.540Z,23.92
2022-07-28T07:45:43.509Z,23.99
2022-07-28T07:46:43.594Z,24.02
2022-07-28T07:47:43.566Z,24.05
2022-07-28T07:48:43.595Z,24.05
2022-07-28T07:49:45.912Z,24.00
2022-07-28T07:50:43.852Z,23.99
2022-07-28T07:51:43.756Z,23.99
2022-07-28T07:52:43.589Z,24.00
2022-07-28T07:53:43.620Z,23.99
2022-07-28T07:54:43.655Z,23.99
2022-07-28T07:55:43.719Z,23.99
2022-07-28T07:56:43.659Z,24.02
2022-07-28T07:57:43.691Z,23.99
2022-07-28T07:58:43.715Z,24.02
2022-07-28T07:59:43.737Z,24.04
2022-07-28T08:00:43.763Z,24.02
2022-07-28T08:01:43.825Z,24.00
2022-07-28T08:02:43.824Z,23.99
2022-07-28T08:03:43.857Z,23.99
2022-07-28T08:04:43.905Z,23.99
2022-07-28T08:05:43.848Z,24.02
2022-07-28T08:06:43.882Z,24.02
2022-07-28T08:07:43.898Z,24.02
2022-07-28T08:08:48.305Z,24.06
2022-07-28T08:09:43.903Z,24.08
2022-07-28T08:10:43.934Z,24.11
2022-07-28T08:11:43.954Z,24.12
2022-07-28T08:12:43.983Z,24.15
2022-07-28T08:13:44.033Z,24.16
2022-07-28T08:14:44.002Z,24.19
2022-07-28T08:15:44.134Z,24.16
2022-07-28T08:16:44.178Z,24.16
2022-07-28T08:17:44.109Z,24.15
2022-07-28T08:18:44.108Z,24.18
2022-07-28T08:19:44.100Z,24.21
2022-07-28T08:20:44.124Z,24.26
2022-07-28T08:21:44.124Z,24.30
2022-07-28T08:22:44.184Z,24.29
2022-07-28T08:23:44.144Z,24.24
2022-07-28T08:24:44.142Z,24.24
2022-07-28T08:25:44.186Z,24.21
2022-07-28T08:26:44.191Z,24.19
2022-07-28T08:27:44.219Z,24.21
2022-07-28T08:28:44.257Z,24.18
2022-07-28T08:29:44.268Z,24.21
2022-07-28T08:30:44.300Z,24.26
2022-07-28T08:31:44.315Z,24.27
2022-07-28T08:32:44.309Z,24.34
2022-07-28T08:33:54.148Z,24.39
2022-07-28T08:34:44.398Z,24.42
2022-07-28T08:35:44.357Z,24.48
2022-07-28T08:36:44.355Z,24.49
2022-07-28T08:37:44.383Z,24.53
2022-07-28T08:38:44.360Z,24.56
2022-07-28T08:39:44.372Z,24.59
2022-07-28T08:40:44.396Z,24.53
2022-07-28T08:41:44.426Z,24.52
2022-07-28T08:42:44.454Z,24.51
2022-07-28T08:43:44.461Z,24.53
2022-07-28T08:44:44.496Z,24.55
2022-07-28T08:45:44.530Z,24.55
2022-07-28T08:46:44.632Z,24.60
2022-07-28T08:48:07.421Z,24.64
2022-07-28T08:48:44.657Z,24.68
2022-07-28T08:49:44.582Z,24.71
2022-07-28T08:50:44.607Z,24.77
2022-07-28T08:51:44.624Z,24.80
2022-07-28T08:52:44.681Z,24.82
2022-07-28T08:53:44.748Z,24.82
2022-07-28T08:54:44.697Z,24.80
2022-07-28T08:55:44.726Z,24.83
2022-07-28T08:56:48.045Z,24.86
2022-07-28T08:57:44.762Z,24.87
2022-07-28T08:58:44.751Z,24.89
2022-07-28T08:59:44.773Z,24.92
2022-07-28T09:00:44.807Z,24.92
2022-07-28T09:01:44.819Z,24.92
2022-07-28T09:02:44.950Z,24.87
2022-07-28T09:03:44.987Z,24.86
2022-07-28T09:04:44.827Z,24.89
2022-07-28T09:05:44.834Z,24.93
2022-07-28T09:06:44.863Z,24.99
2022-07-28T09:07:44.953Z,25.02
2022-07-28T09:08:44.905Z,25.04
2022-07-28T09:09:44.918Z,25.08
2022-07-28T09:10:44.921Z,25.12
2022-07-28T09:11:44.975Z,25.19
2022-07-28T09:12:44.951Z,25.23
2022-07-28T09:13:44.932Z,25.26
2022-07-28T09:14:44.947Z,25.29
2022-07-28T09:15:45.036Z,25.31
2022-07-28T09:16:45.005Z,25.36
2022-07-28T09:17:45.057Z,25.41
2022-07-28T09:18:45.029Z,25.44
2022-07-28T09:19:45.063Z,25.49
2022-07-28T09:20:45.271Z,25.51
2022-07-28T09:21:45.028Z,25.56
2022-07-28T09:22:45.059Z,25.56
2022-07-28T09:23:45.079Z,25.57
2022-07-28T09:24:45.088Z,25.59
2022-07-28T09:25:45.118Z,25.60
2022-07-28T09:26:45.130Z,25.63
2022-07-28T09:27:45.130Z,25.67
2022-07-28T09:28:45.201Z,25.69
2022-07-28T09:29:45.179Z,25.72
2022-07-28T09:30:53.843Z,25.74
2022-07-28T09:31:45.274Z,25.78
2022-07-28T09:32:45.220Z,25.79
2022-07-28T09:33:45.260Z,25.85
2022-07-28T09:34:45.254Z,25.83
2022-07-28T09:35:45.290Z,25.83
2022-07-28T09:36:45.253Z,25.86
2022-07-28T09:37:45.279Z,25.90
2022-07-28T09:38:45.320Z,25.90
2022-07-28T09:39:45.307Z,25.93
2022-07-28T09:40:45.333Z,25.91
2022-07-28T09:41:45.311Z,25.94
2022-07-28T09:42:45.339Z,25.96
2022-07-28T09:43:45.537Z,25.97
2022-07-28T09:45:05.907Z,25.97
2022-07-28T09:45:45.384Z,25.98
2022-07-28T09:46:45.642Z,25.98
2022-07-28T09:47:45.659Z,26.01
2022-07-28T09:48:45.638Z,26.01
2022-07-28T09:49:45.432Z,26.03
2022-07-28T09:50:45.390Z,26.06
2022-07-28T09:51:45.404Z,26.09
2022-07-28T09:52:45.411Z,26.11
2022-07-28T09:53:45.432Z,26.13
2022-07-28T09:54:45.426Z,26.17
2022-07-28T09:55:45.452Z,26.19
2022-07-28T09:56:45.439Z,26.17
2022-07-28T09:57:46.017Z,26.13
2022-07-28T09:58:45.451Z,26.13
2022-07-28T09:59:48.456Z,26.13
2022-07-28T10:00:45.491Z,26.16
2022-07-28T10:01:45.534Z,26.19
2022-07-28T10:02:45.602Z,26.20
2022-07-28T10:03:45.566Z,26.20
2022-07-28T10:04:45.560Z,26.23
2022-07-28T10:05:48.387Z,26.27
2022-07-28T10:06:45.603Z,26.27
2022-07-28T10:07:45.606Z,26.28
2022-07-28T10:08:45.636Z,26.31
2022-07-28T10:09:45.673Z,26.32
2022-07-28T10:10:45.652Z,26.34
2022-07-28T10:11:45.650Z,26.32
2022-07-28T10:12:45.664Z,26.31
2022-07-28T10:13:45.675Z,26.29
2022-07-28T10:14:45.716Z,26.32
2022-07-28T10:15:50.890Z,26.34
2022-07-28T10:16:45.716Z,26.35
2022-07-28T10:17:45.744Z,26.35
2022-07-28T10:18:45.775Z,26.38
2022-07-28T10:19:45.750Z,26.38
2022-07-28T10:20:45.794Z,26.41
2022-07-28T10:21:45.798Z,26.41
2022-07-28T10:22:45.835Z,26.44
2022-07-28T10:23:45.855Z,26.44
2022-07-28T10:24:45.843Z,26.47
2022-07-28T10:25:45.880Z,26.47
2022-07-28T10:26:45.892Z,26.50
2022-07-28T10:27:45.927Z,26.49
2022-07-28T10:28:45.948Z,26.50
2022-07-28T10:29:45.887Z,26.50
2022-07-28T10:30:46.127Z,26.54
2022-07-28T10:31:45.907Z,26.56
2022-07-28T10:32:45.906Z,26.56
2022-07-28T10:33:45.948Z,26.56
2022-07-28T10:34:45.962Z,26.59
2022-07-28T10:35:54.860Z,26.59
2022-07-28T10:36:45.979Z,26.59
2022-07-28T10:37:46.014Z,26.61
2022-07-28T10:38:46.053Z,26.60
2022-07-28T10:39:46.039Z,26.64
2022-07-28T10:40:46.061Z,26.65
2022-07-28T10:41:46.083Z,26.65
2022-07-28T10:42:46.083Z,26.65
2022-07-28T10:43:46.101Z,26.64
2022-07-28T10:44:46.128Z,26.64
2022-07-28T10:46:05.023Z,26.61
2022-07-28T10:46:46.304Z,26.65
2022-07-28T10:47:46.206Z,26.64
2022-07-28T10:48:46.301Z,26.64
2022-07-28T10:49:46.248Z,26.64
2022-07-28T10:50:46.253Z,26.65
2022-07-28T10:52:02.677Z,26.68
2022-07-28T10:52:50.217Z,26.68
2022-07-28T10:53:46.351Z,26.71
2022-07-28T10:54:46.322Z,26.75
2022-07-28T10:55:46.325Z,26.78
2022-07-28T10:56:46.373Z,26.76
2022-07-28T10:57:46.332Z,26.79
2022-07-28T10:58:47.155Z,26.81
2022-07-28T10:59:46.375Z,26.84
2022-07-28T11:00:55.482Z,26.84
2022-07-28T11:01:49.169Z,26.87
2022-07-28T11:02:46.630Z,26.93
2022-07-28T11:03:46.488Z,26.96
2022-07-28T11:04:46.414Z,26.97
2022-07-28T11:05:46.441Z,26.97
2022-07-28T11:06:46.469Z,26.97
2022-07-28T11:07:46.464Z,26.98
2022-07-28T11:08:47.489Z,27.01
2022-07-28T11:09:46.493Z,27.01
2022-07-28T11:10:46.515Z,26.98
2022-07-28T11:11:46.541Z,26.98
2022-07-28T11:12:46.560Z,26.98
2022-07-28T11:13:46.583Z,27.02
2022-07-28T11:14:46.631Z,27.05
2022-07-28T11:15:46.588Z,27.06
2022-07-28T11:16:46.675Z,27.09
2022-07-28T11:17:46.676Z,27.11
2022-07-28T11:18:46.629Z,27.15
2022-07-28T11:20:46.659Z,27.21
2022-07-28T11:21:51.101Z,27.24
2022-07-28T11:22:46.728Z,27.28
2022-07-28T11:23:47.687Z,27.34
2022-07-28T11:24:46.716Z,27.35
2022-07-28T11:25:46.844Z,27.40
2022-07-28T11:26:46.737Z,27.42
2022-07-28T11:27:46.787Z,27.43
2022-07-28T11:28:46.790Z,27.46
2022-07-28T11:29:46.816Z,27.48
2022-07-28T11:30:46.921Z,27.48
2022-07-28T11:31:46.849Z,27.50
2022-07-28T11:32:46.861Z,27.50
2022-07-28T11:33:47.243Z,27.53
2022-07-28T11:34:46.866Z,27.52
2022-07-28T11:35:46.953Z,27.50
2022-07-28T11:36:46.936Z,27.53
2022-07-28T11:37:46.908Z,27.55
2022-07-28T11:38:46.906Z,27.59
2022-07-28T11:39:46.894Z,27.61
2022-07-28T11:40:46.903Z,27.63
2022-07-28T11:41:46.911Z,27.65
2022-07-28T11:42:46.936Z,27.68
2022-07-28T11:43:46.908Z,27.68
2022-07-28T11:44:46.949Z,27.71
2022-07-28T11:45:54.136Z,27.71
2022-07-28T11:46:47.066Z,27.72
2022-07-28T11:47:46.972Z,27.74
2022-07-28T11:48:47.077Z,27.76
2022-07-28T11:49:46.957Z,27.78
2022-07-28T11:50:46.960Z,27.81
2022-07-28T11:51:52.626Z,27.83
2022-07-28T11:52:46.993Z,27.83
2022-07-28T11:53:47.015Z,27.87
2022-07-28T11:54:46.977Z,27.87
2022-07-28T11:55:49.881Z,27.90
2022-07-28T11:56:47.029Z,27.91
2022-07-28T11:57:51.999Z,27.93
2022-07-28T11:58:47.083Z,27.93
2022-07-28T11:59:47.425Z,27.98
2022-07-28T12:00:47.575Z,27.99
2022-07-28T12:01:47.147Z,27.99
2022-07-28T12:02:47.288Z,28.01
2022-07-28T12:03:50.300Z,28.02
2022-07-28T12:04:47.278Z,28.05
2022-07-28T12:05:47.235Z,28.05
2022-07-28T12:06:51.102Z,28.11
2022-07-28T12:07:47.273Z,28.13
2022-07-28T12:08:47.307Z,28.14
2022-07-28T12:09:47.275Z,28.15
2022-07-28T12:10:55.678Z,28.08
2022-07-28T12:11:47.328Z,28.02
2022-07-28T12:12:47.364Z,27.98
2022-07-28T12:13:47.381Z,27.93
2022-07-28T12:14:47.401Z,27.88
2022-07-28T12:15:47.436Z,27.86
2022-07-28T12:16:47.506Z,27.84
2022-07-28T12:17:47.464Z,27.81
2022-07-28T12:18:47.459Z,27.80
2022-07-28T12:19:47.452Z,27.78
2022-07-28T12:20:48.472Z,27.78
2022-07-28T12:21:48.249Z,27.77
2022-07-28T12:22:47.470Z,27.76
2022-07-28T12:23:49.586Z,27.74
2022-07-28T12:24:47.495Z,27.72
2022-07-28T12:25:47.470Z,27.71
2022-07-28T12:26:50.022Z,27.71
2022-07-28T12:27:47.502Z,27.69
2022-07-28T12:28:47.527Z,27.68
2022-07-28T12:29:47.988Z,27.68
2022-07-28T12:30:47.564Z,27.65
2022-07-28T12:31:47.712Z,27.63
2022-07-28T12:32:47.612Z,27.65
2022-07-28T12:33:47.634Z,27.62
2022-07-28T12:34:47.658Z,27.62
2022-07-28T12:35:47.687Z,27.62
2022-07-28T12:36:47.659Z,27.61
2022-07-28T12:37:47.659Z,27.62
2022-07-28T12:38:47.687Z,27.61
2022-07-28T12:39:47.764Z,27.61
2022-07-28T12:40:47.736Z,27.61
2022-07-28T12:41:47.726Z,27.62
2022-07-28T12:42:51.846Z,27.61
2022-07-28T12:43:47.763Z,27.61
2022-07-28T12:44:47.909Z,27.59
2022-07-28T12:45:47.908Z,27.59
2022-07-28T12:46:47.776Z,27.59
2022-07-28T12:47:47.789Z,27.59
2022-07-28T12:48:47.878Z,27.58
2022-07-28T12:49:47.796Z,27.58
2022-07-28T12:50:47.816Z,27.58
2022-07-28T12:51:47.825Z,27.59
2022-07-28T12:52:47.850Z,27.59
2022-07-28T12:53:47.868Z,27.59
2022-07-28T12:54:54.913Z,27.59
2022-07-28T12:55:47.918Z,27.61
2022-07-28T12:56:47.926Z,27.59